Time;durP1;ratioP1;P1;durP2;ratioP2;P2;SDS_P1;SDS_P2;PMS_P1;PMS_P2;Temp;Humidity;BMP_temperature;BMP_pressure;BME280_temperature;BME280_humidity;BME280_pressure;Samples;Min_cycle;Max_cycle;Signal;HPM_P1;HPM_P2
2021/05/18 00:00:46;;;;;;;9.57;4.50;;;10.80;99.90;;;;;;6297238;22;20172;-80
2021/05/18 00:03:15;;;;;;;11.37;5.47;;;10.80;99.90;;;;;;6296105;22;20191;-80
2021/05/18 00:05:44;;;;;;;11.97;5.53;;;10.90;99.90;;;;;;6296079;22;20241;-79
2021/05/18 00:08:12;;;;;;;10.93;5.80;;;10.90;99.90;;;;;;6297237;22;20195;-80
2021/05/18 00:13:26;;;;;;;16.00;6.80;;;10.90;99.90;;;;;;6296328;22;20159;-80
2021/05/18 00:15:55;;;;;;;15.83;6.70;;;11.00;99.90;;;;;;6296343;22;20176;-80
2021/05/18 00:18:23;;;;;;;17.60;7.03;;;11.00;99.90;;;;;;6297224;22;20191;-80
2021/05/18 00:20:49;;;;;;;16.13;6.50;;;11.00;99.90;;;;;;6297351;22;20176;-81
2021/05/18 00:23:16;;;;;;;15.43;6.30;;;11.10;99.90;;;;;;6297030;22;20268;-79
2021/05/18 00:25:42;;;;;;;10.73;6.43;;;11.10;99.90;;;;;;6297428;22;20348;-80
2021/05/18 00:28:09;;;;;;;18.40;6.53;;;11.10;99.90;;;;;;6297141;22;20184;-81
2021/05/18 00:30:35;;;;;;;11.83;6.70;;;11.10;99.90;;;;;;6295662;22;20172;-79
2021/05/18 00:33:07;;;;;;;17.30;7.07;;;11.10;99.90;;;;;;6296941;22;20172;-79
2021/05/18 00:35:35;;;;;;;12.37;6.00;;;11.20;99.90;;;;;;6295937;22;20164;-80
2021/05/18 00:38:03;;;;;;;11.87;7.87;;;11.20;99.90;;;;;;6295260;22;20175;-80
2021/05/18 00:40:29;;;;;;;13.03;7.63;;;11.20;99.90;;;;;;6297254;22;20241;-80
2021/05/18 00:42:56;;;;;;;14.90;7.23;;;11.20;99.90;;;;;;6296779;22;20818;-78
2021/05/18 00:45:28;;;;;;;14.53;7.53;;;11.20;99.90;;;;;;6295883;22;20172;-81
2021/05/18 00:47:55;;;;;;;15.13;8.63;;;11.20;99.90;;;;;;6296557;22;20156;-79
2021/05/18 00:50:21;;;;;;;19.17;10.07;;;11.20;99.90;;;;;;6297504;22;20240;-81
2021/05/18 00:52:48;;;;;;;20.00;8.17;;;11.20;99.90;;;;;;6296664;22;20822;-82
2021/05/18 00:55:21;;;;;;;17.93;9.63;;;11.30;99.90;;;;;;6297448;22;20417;-80
2021/05/18 01:00:33;;;;;;;17.00;8.87;;;11.30;99.90;;;;;;6296613;22;20213;-81
2021/05/18 01:02:59;;;;;;;15.83;9.03;;;11.40;99.90;;;;;;6296496;22;20219;-81
2021/05/18 01:08:08;;;;;;;11.93;7.47;;;11.40;99.90;;;;;;6296673;22;20575;-82
2021/05/18 01:10:34;;;;;;;15.07;7.77;;;11.40;99.90;;;;;;6297063;22;20527;-80
2021/05/18 01:13:01;;;;;;;13.57;7.33;;;11.50;99.90;;;;;;6296748;22;20218;-80
2021/05/18 01:15:27;;;;;;;12.37;7.03;;;11.50;99.90;;;;;;6297513;22;20233;-81
2021/05/18 01:17:53;;;;;;;16.10;7.87;;;11.50;99.90;;;;;;6296910;22;20202;-81
2021/05/18 01:20:21;;;;;;;12.73;6.60;;;11.50;99.90;;;;;;6296486;22;20168;-82
2021/05/18 01:22:49;;;;;;;17.47;6.77;;;11.50;99.90;;;;;;6295818;22;20231;-81
2021/05/18 01:25:18;;;;;;;14.37;5.97;;;11.50;99.90;;;;;;6297519;22;20179;-82
2021/05/18 01:27:45;;;;;;;16.23;7.60;;;11.50;99.90;;;;;;6296488;22;20221;-82
2021/05/18 01:30:12;;;;;;;15.53;7.97;;;11.50;99.90;;;;;;6296829;22;20175;-79
2021/05/18 01:32:40;;;;;;;15.67;8.17;;;11.50;99.90;;;;;;6296928;22;20179;-80
2021/05/18 01:35:08;;;;;;;13.53;8.93;;;11.50;99.90;;;;;;6294774;22;20175;-80
2021/05/18 01:37:34;;;;;;;13.20;8.93;;;11.40;99.90;;;;;;6294950;22;20246;-79
2021/05/18 01:40:11;;;;;;;13.10;8.10;;;11.30;99.90;;;;;;6295967;22;20172;-81
2021/05/18 01:42:50;;;;;;;14.33;7.73;;;11.30;99.90;;;;;;6294471;22;20600;-79
2021/05/18 01:45:19;;;;;;;14.60;8.93;;;11.30;99.90;;;;;;6296285;22;20170;-79
2021/05/18 01:47:51;;;;;;;18.90;10.13;;;11.30;99.90;;;;;;6295254;22;20176;-79
2021/05/18 01:50:20;;;;;;;12.80;7.70;;;11.20;99.90;;;;;;6295748;22;20168;-79
2021/05/18 01:52:46;;;;;;;10.93;7.70;;;11.20;99.90;;;;;;6296899;22;20437;-80
2021/05/18 01:55:18;;;;;;;13.17;8.47;;;11.10;99.90;;;;;;6295748;22;20172;-77
2021/05/18 01:57:44;;;;;;;13.10;8.40;;;11.10;99.90;;;;;;6295603;22;20273;-77
2021/05/18 02:00:13;;;;;;;11.97;9.53;;;11.10;99.90;;;;;;6296123;22;20634;-77
2021/05/18 02:02:40;;;;;;;16.33;10.77;;;11.10;99.90;;;;;;6296096;22;20168;-80
2021/05/18 02:05:11;;;;;;;12.43;8.70;;;11.10;99.90;;;;;;6295780;22;20200;-79
2021/05/18 02:07:39;;;;;;;12.53;8.07;;;11.00;99.90;;;;;;6295751;22;20156;-80
2021/05/18 02:10:09;;;;;;;16.60;11.70;;;11.10;99.90;;;;;;6295621;22;20176;-80
2021/05/18 02:12:37;;;;;;;15.90;11.70;;;11.00;99.90;;;;;;6295678;22;20171;-80
2021/05/18 02:15:06;;;;;;;13.93;10.13;;;11.00;99.90;;;;;;6294661;22;20639;-76
2021/05/18 02:17:36;;;;;;;17.60;11.10;;;10.90;99.90;;;;;;6294714;22;20859;-81
2021/05/18 02:20:20;;;;;;;15.70;11.20;;;10.90;99.90;;;;;;6296919;22;20499;-80
2021/05/18 02:25:31;;;;;;;13.97;9.07;;;10.90;99.90;;;;;;6296509;22;20195;-78
2021/05/18 02:27:59;;;;;;;16.27;10.13;;;10.90;99.90;;;;;;6296482;22;20176;-78
2021/05/18 02:30:26;;;;;;;14.83;10.80;;;10.90;99.90;;;;;;6295562;22;20171;-79
2021/05/18 02:32:53;;;;;;;16.33;11.17;;;10.90;99.90;;;;;;6295874;22;20529;-80
2021/05/18 02:35:20;;;;;;;15.83;10.23;;;10.80;99.90;;;;;;6295929;22;20168;-82
2021/05/18 02:37:48;;;;;;;16.37;9.50;;;10.90;99.90;;;;;;6295141;22;20175;-78
2021/05/18 02:40:18;;;;;;;16.23;9.37;;;10.90;99.90;;;;;;6296522;22;20172;-76
2021/05/18 02:42:46;;;;;;;16.50;10.07;;;10.80;99.90;;;;;;6294536;22;20176;-77
2021/05/18 02:45:19;;;;;;;14.23;8.73;;;10.80;99.90;;;;;;6294930;22;20620;-80
2021/05/18 02:50:30;;;;;;;15.67;10.27;;;10.80;99.90;;;;;;6295368;22;20170;-77
2021/05/18 02:52:56;;;;;;;15.37;10.73;;;10.90;99.90;;;;;;6294799;22;20171;-81
2021/05/18 02:55:27;;;;;;;16.87;10.10;;;10.90;99.90;;;;;;6295590;22;20202;-80
2021/05/18 02:57:54;;;;;;;16.10;11.03;;;10.80;99.90;;;;;;6295285;22;20179;-79
2021/05/18 03:00:23;;;;;;;21.10;12.20;;;10.90;99.90;;;;;;6294391;22;20745;-78
2021/05/18 03:02:51;;;;;;;15.90;11.43;;;10.90;99.90;;;;;;6295124;22;20172;-78
2021/05/18 03:05:18;;;;;;;15.20;11.00;;;10.80;99.90;;;;;;6294500;22;20259;-77
2021/05/18 03:07:45;;;;;;;16.57;11.13;;;10.80;99.90;;;;;;6294318;22;20172;-77
2021/05/18 03:10:13;;;;;;;19.90;13.17;;;10.80;99.90;;;;;;6294210;22;20658;-79
2021/05/18 03:12:39;;;;;;;17.00;12.40;;;10.80;99.90;;;;;;6293932;22;20180;-79
2021/05/18 03:15:07;;;;;;;16.57;11.50;;;10.80;99.90;;;;;;6293570;22;20173;-78
2021/05/18 03:17:36;;;;;;;13.00;9.43;;;10.80;99.90;;;;;;6294782;22;20176;-79
2021/05/18 03:20:03;;;;;;;11.90;9.00;;;10.80;99.90;;;;;;6293515;22;20174;-80
2021/05/18 03:22:29;;;;;;;18.17;11.17;;;10.80;99.90;;;;;;6294296;22;20239;-79
2021/05/18 03:24:56;;;;;;;15.33;11.10;;;10.80;99.90;;;;;;6294623;22;20203;-81
2021/05/18 03:27:24;;;;;;;17.40;10.87;;;10.80;99.90;;;;;;6294434;22;20176;-79
2021/05/18 03:29:51;;;;;;;18.07;10.87;;;10.70;99.90;;;;;;6294850;22;20179;-77
2021/05/18 03:35:03;;;;;;;12.53;9.83;;;10.70;99.90;;;;;;6293353;22;20756;-77
2021/05/18 03:37:37;;;;;;;10.00;8.10;;;10.70;99.90;;;;;;6294247;22;20261;-77
2021/05/18 03:40:08;;;;;;;13.20;9.00;;;10.70;99.90;;;;;;6295383;22;20822;-79
2021/05/18 03:42:37;;;;;;;10.40;8.43;;;10.70;99.90;;;;;;6294216;22;20168;-78
2021/05/18 03:45:12;;;;;;;16.23;11.73;;;10.70;99.90;;;;;;6294936;22;20192;-77
2021/05/18 03:53:27;;;;;;;15.27;11.93;;;10.70;99.90;;;;;;6294929;22;20225;-78
2021/05/18 03:58:51;;;;;;;14.67;11.40;;;10.70;99.90;;;;;;6294910;22;20237;-77
2021/05/18 04:04:09;;;;;;;13.17;9.87;;;10.70;99.90;;;;;;6293763;22;20191;-78
2021/05/18 04:12:11;;;;;;;18.97;12.93;;;10.70;99.90;;;;;;6296279;22;20540;-78
2021/05/18 04:17:23;;;;;;;22.97;14.37;;;10.70;99.90;;;;;;6295259;22;20167;-78
2021/05/18 04:19:55;;;;;;;19.07;15.07;;;10.80;99.90;;;;;;6295758;22;20176;-77
2021/05/18 04:22:34;;;;;;;16.33;13.10;;;10.80;99.90;;;;;;6296052;22;20238;-79
2021/05/18 04:38:50;;;;;;;15.63;13.67;;;10.80;99.90;;;;;;6294944;22;20163;-81
2021/05/18 04:41:36;;;;;;;21.80;15.70;;;10.80;99.90;;;;;;6295723;22;20221;-81
2021/05/18 04:49:55;;;;;;;21.90;15.90;;;10.90;99.90;;;;;;6297191;22;20713;-80
2021/05/18 04:52:24;;;;;;;21.40;16.50;;;10.90;99.90;;;;;;6296434;22;20176;-80
2021/05/18 05:00:44;;;;;;;22.47;17.87;;;10.90;99.90;;;;;;6296107;22;20163;-81
2021/05/18 05:06:19;;;;;;;22.87;16.40;;;11.00;99.90;;;;;;6296301;22;20167;-78
2021/05/18 05:08:50;;;;;;;20.87;15.90;;;11.00;99.90;;;;;;6296250;22;20164;-78
2021/05/18 05:16:49;;;;;;;18.53;11.73;;;11.10;99.90;;;;;;6284849;22;20783;-79
2021/05/18 05:19:16;;;;;;;15.90;10.60;;;11.20;99.90;;;;;;6296439;22;20180;-80
2021/05/18 05:21:43;;;;;;;15.00;10.97;;;11.20;99.90;;;;;;6295550;22;20191;-79
2021/05/18 05:24:10;;;;;;;16.00;11.37;;;11.20;99.90;;;;;;6295868;22;20206;-79
2021/05/18 05:26:39;;;;;;;13.30;10.03;;;11.20;99.90;;;;;;6295217;22;20172;-81
2021/05/18 05:29:06;;;;;;;12.07;9.63;;;11.20;99.90;;;;;;6295871;22;20164;-80
2021/05/18 05:31:33;;;;;;;16.37;11.17;;;11.30;99.90;;;;;;6296374;22;20172;-78
2021/05/18 05:33:59;;;;;;;13.60;10.47;;;11.40;99.90;;;;;;6295030;22;20176;-79
2021/05/18 05:36:26;;;;;;;15.73;11.20;;;11.40;99.90;;;;;;6296041;22;20215;-79
2021/05/18 05:39:01;;;;;;;18.37;10.07;;;11.50;99.90;;;;;;6296585;22;20164;-79
2021/05/18 05:41:28;;;;;;;15.40;10.33;;;11.60;99.90;;;;;;6294858;22;20302;-79
2021/05/18 05:43:55;;;;;;;13.00;9.80;;;11.70;99.90;;;;;;6295766;22;20226;-79
2021/05/18 05:46:22;;;;;;;14.33;10.93;;;11.80;99.90;;;;;;6295763;22;20175;-80
2021/05/18 05:48:54;;;;;;;15.50;9.87;;;12.10;99.90;;;;;;6294309;22;20164;-78
2021/05/18 05:51:22;;;;;;;13.60;7.63;;;12.50;99.90;;;;;;6295851;22;20187;-80
2021/05/18 05:53:49;;;;;;;10.93;7.07;;;12.90;99.90;;;;;;6294915;22;20172;-80
2021/05/18 05:56:16;;;;;;;7.63;5.03;;;13.50;99.90;;;;;;6294702;22;20179;-81
2021/05/18 05:58:43;;;;;;;11.13;5.67;;;14.00;99.90;;;;;;6294306;22;20172;-78
2021/05/18 06:01:11;;;;;;;9.33;5.40;;;14.30;99.90;;;;;;6292910;22;20181;-80
2021/05/18 06:03:37;;;;;;;7.27;4.70;;;14.90;99.90;;;;;;6294406;22;20207;-80
2021/05/18 06:06:03;;;;;;;5.17;3.87;;;15.30;99.90;;;;;;6294136;22;20183;-79
2021/05/18 06:08:30;;;;;;;5.40;3.77;;;15.80;99.90;;;;;;6293955;22;20179;-80
2021/05/18 06:11:02;;;;;;;6.88;3.60;;;16.00;99.90;;;;;;6293455;22;20481;-79
2021/05/18 06:13:50;;;;;;;4.85;3.67;;;16.00;99.90;;;;;;6293860;22;20735;-79
2021/05/18 06:16:53;;;;;;;5.93;3.42;;;15.80;99.90;;;;;;6293679;22;20164;-79
2021/05/18 06:36:51;;;;;;;6.30;3.45;;;16.30;99.90;;;;;;6293443;22;20167;-80
2021/05/18 06:41:36;;;;;;;5.05;3.58;;;16.80;99.90;;;;;;6294142;22;20163;-80
2021/05/18 06:46:54;;;;;;;5.32;3.10;;;17.40;99.90;;;;;;6293837;22;20802;-78
2021/05/18 06:49:22;;;;;;;8.18;4.10;;;17.40;99.90;;;;;;6294220;22;20626;-80
2021/05/18 06:51:48;;;;;;;3.97;2.63;;;17.20;99.90;;;;;;6293506;22;20179;-81
2021/05/18 06:54:15;;;;;;;5.45;3.03;;;17.20;99.90;;;;;;6293872;22;20829;-80
2021/05/18 06:56:43;;;;;;;4.38;2.90;;;17.40;99.90;;;;;;6215881;22;20168;-78
2021/05/18 07:01:57;;;;;;;3.60;2.70;;;17.50;99.90;;;;;;6293097;22;20163;-77
2021/05/18 07:04:25;;;;;;;2.58;2.38;;;17.20;99.90;;;;;;6293641;22;20655;-77
2021/05/18 07:06:55;;;;;;;3.75;3.05;;;17.00;99.90;;;;;;6294436;22;20191;-76
2021/05/18 07:09:21;;;;;;;3.88;3.10;;;16.80;99.90;;;;;;6294124;22;20686;-78
2021/05/18 07:11:47;;;;;;;4.18;2.75;;;16.50;99.90;;;;;;6293439;22;20164;-79
2021/05/18 07:14:14;;;;;;;3.60;2.70;;;16.20;99.90;;;;;;6293630;22;20622;-78
2021/05/18 07:16:40;;;;;;;5.82;3.20;;;16.00;99.90;;;;;;6293364;22;20172;-79
2021/05/18 07:19:06;;;;;;;6.68;3.25;;;15.90;99.90;;;;;;6293946;22;20172;-79
2021/05/18 07:21:33;;;;;;;4.57;2.70;;;16.20;99.90;;;;;;6294650;22;20171;-77
2021/05/18 07:24:00;;;;;;;2.92;2.50;;;16.50;99.90;;;;;;6293999;22;20574;-77
2021/05/18 07:26:26;;;;;;;3.05;2.38;;;16.80;99.90;;;;;;6293683;22;20204;-76
2021/05/18 07:28:52;;;;;;;3.60;3.08;;;17.10;99.90;;;;;;6295916;22;20183;-82
2021/05/18 07:31:19;;;;;;;3.53;2.80;;;17.30;99.90;;;;;;6295717;22;20168;-81
2021/05/18 07:33:45;;;;;;;4.97;2.65;;;17.70;99.90;;;;;;6293317;22;20490;-82
2021/05/18 07:36:11;;;;;;;5.10;2.80;;;17.90;99.90;;;;;;6295058;22;20196;-77
2021/05/18 07:38:40;;;;;;;4.72;2.30;;;18.20;99.90;;;;;;6295351;22;20172;-76
2021/05/18 07:41:07;;;;;;;2.58;2.10;;;18.60;99.90;;;;;;6295523;22;20548;-77
2021/05/18 07:43:34;;;;;;;2.50;2.30;;;18.90;99.90;;;;;;6297929;22;20869;-78
2021/05/18 07:46:02;;;;;;;2.80;2.40;;;19.10;99.90;;;;;;6297021;22;20320;-76
2021/05/18 07:48:35;;;;;;;3.20;2.30;;;19.30;99.90;;;;;;6296208;22;20172;-81
2021/05/18 07:51:10;;;;;;;3.58;2.20;;;19.50;99.90;;;;;;6296987;22;20164;-80
2021/05/18 08:07:31;;;;;;;3.83;2.47;;;20.20;99.90;;;;;;6294589;22;20213;-77
2021/05/18 08:10:06;;;;;;;3.60;2.70;;;20.40;99.90;;;;;;6295246;22;20164;-78
2021/05/18 08:12:32;;;;;;;4.15;2.47;;;20.70;99.90;;;;;;6295325;22;20164;-77
2021/05/18 08:15:03;;;;;;;4.43;2.47;;;21.00;99.90;;;;;;6295040;22;20169;-80
2021/05/18 08:17:32;;;;;;;3.95;2.60;;;21.20;99.90;;;;;;6295273;22;20172;-80
2021/05/18 08:20:21;;;;;;;3.60;3.15;;;21.10;99.90;;;;;;6295135;22;20172;-78
2021/05/18 09:44:10;;;;;;;7.50;5.20;;;18.10;99.90;;;;;;6180491;22;20269;-78
2021/05/18 10:35:39;;;;;;;9.68;6.93;;;17.50;99.90;;;;;;6293538;22;20168;-78
2021/05/18 10:38:08;;;;;;;9.38;6.93;;;17.50;99.90;;;;;;6294443;22;20203;-78
2021/05/18 10:40:35;;;;;;;10.23;7.13;;;17.60;99.90;;;;;;6294459;22;20176;-79
2021/05/18 10:43:20;;;;;;;8.82;6.10;;;17.50;99.90;;;;;;6293301;22;20619;-79
2021/05/18 10:46:10;;;;;;;8.40;6.15;;;17.70;99.90;;;;;;6294702;22;20184;-79
2021/05/18 10:49:08;;;;;;;9.55;6.68;;;18.00;99.90;;;;;;6294775;22;20164;-78
2021/05/18 10:51:49;;;;;;;10.00;6.72;;;18.20;99.90;;;;;;6294134;22;20246;-80
2021/05/18 10:54:28;;;;;;;11.43;7.85;;;18.20;99.90;;;;;;6294158;22;20214;-79
2021/05/18 10:57:04;;;;;;;8.15;7.10;;;18.00;99.90;;;;;;6293283;22;20164;-78
2021/05/18 10:59:32;;;;;;;11.07;7.10;;;17.80;99.90;;;;;;6293755;22;20175;-78
2021/05/18 11:02:02;;;;;;;10.98;7.28;;;17.90;99.90;;;;;;6293938;22;20182;-79
2021/05/18 11:04:31;;;;;;;11.60;7.32;;;17.80;99.90;;;;;;6294032;22;20196;-80
2021/05/18 11:06:59;;;;;;;9.20;6.75;;;17.90;99.90;;;;;;6294880;22;20176;-80
2021/05/18 11:09:26;;;;;;;11.05;6.90;;;17.60;99.90;;;;;;6295887;22;20486;-81
2021/05/18 11:11:59;;;;;;;9.95;7.03;;;17.60;99.90;;;;;;6293653;22;20163;-83
2021/05/18 11:14:34;;;;;;;9.73;6.10;;;17.60;99.90;;;;;;6295465;22;20160;-78
2021/05/18 11:17:08;;;;;;;10.98;6.43;;;17.60;99.90;;;;;;6296731;22;20160;-81
2021/05/18 11:19:34;;;;;;;12.43;7.30;;;17.70;99.90;;;;;;6296816;22;20182;-76
2021/05/18 11:22:03;;;;;;;10.27;6.10;;;17.90;99.90;;;;;;6296862;22;20172;-77
2021/05/18 11:24:29;;;;;;;8.23;6.22;;;17.80;99.90;;;;;;6296835;22;20218;-76
2021/05/18 11:26:55;;;;;;;9.65;5.75;;;17.90;99.90;;;;;;6296387;22;20203;-78
2021/05/18 11:29:40;;;;;;;9.05;6.38;;;17.80;99.90;;;;;;6297324;22;20183;-78
2021/05/18 11:32:09;;;;;;;8.48;5.80;;;17.90;99.90;;;;;;6297616;22;20891;-80
2021/05/18 11:34:49;;;;;;;6.13;5.53;;;17.70;99.90;;;;;;6297650;22;20428;-77
2021/05/18 11:37:15;;;;;;;9.10;5.75;;;17.70;99.90;;;;;;6295124;22;20430;-85
2021/05/18 11:39:41;;;;;;;6.55;5.03;;;17.80;99.90;;;;;;6296999;22;20180;-76
2021/05/18 11:42:08;;;;;;;6.45;4.95;;;18.00;99.90;;;;;;6297543;22;20176;-81
2021/05/18 11:44:35;;;;;;;8.25;4.93;;;18.40;99.90;;;;;;6298183;22;20446;-80
2021/05/18 11:47:03;;;;;;;6.85;5.18;;;18.70;99.90;;;;;;6299164;22;20219;-77
2021/05/18 11:49:30;;;;;;;7.90;5.65;;;19.00;99.90;;;;;;6299739;22;20183;-76
2021/05/18 11:51:57;;;;;;;7.88;5.80;;;19.30;99.90;;;;;;6298886;22;20183;-76
2021/05/18 11:54:27;;;;;;;7.65;6.03;;;19.20;99.90;;;;;;6300221;22;20176;-88
2021/05/18 11:56:54;;;;;;;7.53;6.05;;;19.20;99.90;;;;;;6298825;22;20175;-82
2021/05/18 11:59:22;;;;;;;8.77;6.25;;;18.60;99.90;;;;;;6300316;22;20172;-83
2021/05/18 12:01:51;;;;;;;6.28;5.40;;;18.00;99.90;;;;;;6297357;22;20172;-81
2021/05/18 12:04:20;;;;;;;8.98;6.15;;;17.70;99.90;;;;;;6298299;22;20199;-78
2021/05/18 12:06:57;;;;;;;12.02;7.43;;;17.60;99.90;;;;;;6297641;22;20175;-80
2021/05/18 12:09:24;;;;;;;10.02;6.20;;;17.50;99.90;;;;;;6296344;22;20172;-78
2021/05/18 12:11:54;;;;;;;10.05;5.70;;;17.40;99.90;;;;;;6297258;22;20230;-79
2021/05/18 12:14:23;;;;;;;10.40;7.05;;;17.10;99.90;;;;;;6296587;22;20176;-80
2021/05/18 12:16:50;;;;;;;9.52;6.10;;;16.80;99.90;;;;;;6297262;22;20182;-81
2021/05/18 12:19:18;;;;;;;9.20;6.53;;;16.70;99.90;;;;;;6298216;22;20172;-82
2021/05/18 12:21:48;;;;;;;8.05;6.13;;;16.60;99.90;;;;;;6295854;22;20167;-79
2021/05/18 12:24:16;;;;;;;11.00;6.25;;;16.60;99.90;;;;;;6298460;22;20278;-82
2021/05/18 12:26:48;;;;;;;11.10;6.45;;;16.60;99.90;;;;;;6295763;22;20210;-84
2021/05/18 12:29:26;;;;;;;9.20;6.45;;;16.60;99.90;;;;;;6295988;22;20175;-83
2021/05/18 12:31:53;;;;;;;12.63;6.85;;;16.70;99.90;;;;;;6297416;22;20210;-81
2021/05/18 12:34:29;;;;;;;11.57;6.20;;;16.80;99.90;;;;;;6296021;22;20916;-84
2021/05/18 12:36:55;;;;;;;10.20;6.80;;;16.80;99.90;;;;;;6296257;22;20205;-79
2021/05/18 12:39:22;;;;;;;10.20;6.75;;;16.40;99.90;;;;;;6295868;22;20199;-84
2021/05/18 12:41:52;;;;;;;12.20;6.27;;;16.20;99.90;;;;;;6295895;22;20172;-79
2021/05/18 12:44:19;;;;;;;8.90;6.07;;;15.80;99.90;;;;;;6295369;22;20227;-81
2021/05/18 12:46:53;;;;;;;7.10;5.60;;;15.80;99.90;;;;;;6296155;22;20230;-78
2021/05/18 12:49:36;;;;;;;8.20;5.13;;;15.70;99.90;;;;;;6295567;22;20183;-79
2021/05/18 12:52:09;;;;;;;8.07;5.18;;;15.80;99.90;;;;;;6295447;22;20164;-81
2021/05/18 12:54:55;;;;;;;8.80;5.80;;;16.00;99.90;;;;;;6295259;22;20167;-81
2021/05/18 12:57:24;;;;;;;9.83;5.50;;;16.00;99.90;;;;;;6294838;22;20482;-83
2021/05/18 12:59:58;;;;;;;9.23;6.13;;;16.10;99.90;;;;;;6295678;22;20258;-82
2021/05/18 13:02:33;;;;;;;8.27;5.97;;;16.40;99.90;;;;;;6295968;22;20171;-81
2021/05/18 13:05:10;;;;;;;10.15;5.90;;;16.70;99.90;;;;;;6295708;22;20435;-80
2021/05/18 13:07:38;;;;;;;7.88;5.50;;;17.00;99.90;;;;;;6296300;22;20168;-79
2021/05/18 13:10:12;;;;;;;7.53;5.90;;;17.00;99.90;;;;;;6296185;22;20825;-79
2021/05/18 13:12:39;;;;;;;8.80;5.18;;;16.90;99.90;;;;;;6295830;22;20190;-77
2021/05/18 13:15:07;;;;;;;7.00;4.85;;;16.90;99.90;;;;;;6295666;22;20229;-82
2021/05/18 13:17:34;;;;;;;8.63;5.07;;;16.80;99.90;;;;;;6296106;22;20180;-82
2021/05/18 13:20:04;;;;;;;10.35;5.53;;;17.10;99.90;;;;;;6298329;22;20187;-81
2021/05/18 13:22:33;;;;;;;9.93;6.20;;;17.30;99.90;;;;;;6296766;22;20175;-80
2021/05/18 13:27:59;;;;;;;7.28;5.63;;;17.00;99.90;;;;;;6296891;22;20187;-77
2021/05/18 13:30:27;;;;;;;7.25;4.88;;;16.90;99.90;;;;;;6295857;22;20182;-80
2021/05/18 13:32:54;;;;;;;7.95;4.75;;;16.90;99.90;;;;;;6295495;22;20176;-78
2021/05/18 13:35:23;;;;;;;8.70;5.05;;;16.90;99.90;;;;;;6295647;22;20171;-79
2021/05/18 13:37:50;;;;;;;7.68;4.97;;;17.00;99.90;;;;;;6295566;22;20164;-77
2021/05/18 13:40:18;;;;;;;10.68;5.28;;;17.10;99.90;;;;;;6294917;22;20176;-79
2021/05/18 13:42:48;;;;;;;7.63;5.15;;;17.10;99.90;;;;;;6294445;22;20172;-77
2021/05/18 13:45:14;;;;;;;7.72;5.72;;;17.30;99.90;;;;;;6294354;22;20287;-78
2021/05/18 13:47:41;;;;;;;7.88;5.38;;;17.50;99.90;;;;;;6294884;22;20176;-77
2021/05/18 13:50:09;;;;;;;7.45;5.88;;;17.60;99.90;;;;;;6294816;22;20172;-80
2021/05/18 13:52:35;;;;;;;9.77;5.53;;;17.60;99.90;;;;;;6293876;22;20168;-81
2021/05/18 13:55:04;;;;;;;11.35;5.78;;;17.50;99.90;;;;;;6295028;22;20172;-80
2021/05/18 13:57:30;;;;;;;8.85;5.78;;;17.30;99.90;;;;;;6297889;22;20176;-83
2021/05/18 13:59:56;;;;;;;9.52;5.60;;;17.30;99.90;;;;;;6295055;22;20179;-80
2021/05/18 14:02:23;;;;;;;10.40;6.50;;;17.00;99.90;;;;;;6295017;22;20168;-80
2021/05/18 14:04:49;;;;;;;9.68;6.28;;;16.90;99.90;;;;;;6295373;22;20595;-81
2021/05/18 14:10:20;;;;;;;9.18;5.45;;;16.60;99.90;;;;;;6294261;22;20179;-82
2021/05/18 14:12:46;;;;;;;10.52;5.65;;;16.40;99.90;;;;;;6295085;22;20206;-77
2021/05/18 14:15:13;;;;;;;9.95;5.55;;;16.50;99.90;;;;;;6295576;22;20172;-78
2021/05/18 14:17:39;;;;;;;7.27;5.10;;;16.40;99.90;;;;;;6295491;22;20822;-79
2021/05/18 14:20:07;;;;;;;8.43;5.68;;;16.40;99.90;;;;;;6295410;22;20176;-78
2021/05/18 14:22:33;;;;;;;10.23;5.60;;;16.40;99.90;;;;;;6294316;22;20191;-78
2021/05/18 14:25:05;;;;;;;11.77;6.23;;;16.50;99.90;;;;;;6294175;22;20188;-78
2021/05/18 14:27:33;;;;;;;9.00;5.50;;;16.20;99.90;;;;;;6294764;22;20259;-80
2021/05/18 14:30:00;;;;;;;12.77;5.47;;;16.10;99.90;;;;;;6294427;22;20183;-77
2021/05/18 14:32:26;;;;;;;9.30;4.95;;;16.30;99.90;;;;;;6295086;22;20195;-78
2021/05/18 14:34:53;;;;;;;10.10;4.57;;;16.40;99.90;;;;;;6294397;22;20167;-78
2021/05/18 14:37:19;;;;;;;9.38;4.90;;;16.60;99.90;;;;;;6293762;22;20940;-79
2021/05/18 14:39:57;;;;;;;8.37;5.03;;;16.70;99.90;;;;;;6295865;22;20171;-82
2021/05/18 14:45:15;;;;;;;11.27;5.72;;;16.70;99.90;;;;;;6294550;22;20300;-79
2021/05/18 14:47:51;;;;;;;9.80;5.78;;;16.70;99.90;;;;;;6294761;22;20768;-79
2021/05/18 14:55:46;;;;;;;9.70;5.47;;;16.50;99.90;;;;;;6295303;22;20257;-81
2021/05/18 14:58:14;;;;;;;8.13;5.80;;;16.30;99.90;;;;;;6296013;22;20172;-81
2021/05/18 15:00:42;;;;;;;6.68;4.38;;;16.20;99.90;;;;;;6295847;22;20171;-81
2021/05/18 15:03:09;;;;;;;9.88;6.45;;;16.30;99.90;;;;;;6295256;22;20171;-81
2021/05/18 15:05:35;;;;;;;9.98;6.90;;;16.50;99.90;;;;;;6296188;22;20191;-82
2021/05/18 15:08:01;;;;;;;9.55;6.20;;;16.60;99.90;;;;;;6296101;22;20176;-81
2021/05/18 15:10:28;;;;;;;10.02;6.18;;;16.60;99.90;;;;;;6301298;22;20444;-81
2021/05/18 15:12:55;;;;;;;9.02;6.10;;;16.60;99.90;;;;;;6300353;22;20183;-80
2021/05/18 15:15:21;;;;;;;9.82;5.78;;;16.60;99.90;;;;;;6297703;22;20171;-82
2021/05/18 15:17:49;;;;;;;8.27;5.05;;;16.70;99.90;;;;;;6296345;22;20496;-81
2021/05/18 15:20:16;;;;;;;6.53;4.80;;;16.60;99.90;;;;;;6300421;22;20172;-84
2021/05/18 15:22:42;;;;;;;6.57;4.95;;;16.60;99.90;;;;;;6299286;22;20164;-84
2021/05/18 15:25:10;;;;;;;8.30;5.70;;;16.50;99.90;;;;;;6297440;22;20195;-81
2021/05/18 15:27:36;;;;;;;8.65;5.15;;;16.30;99.90;;;;;;6299678;22;20164;-86
2021/05/18 15:30:04;;;;;;;10.40;4.95;;;16.10;99.90;;;;;;6300524;22;20176;-82
2021/05/18 15:32:30;;;;;;;6.68;3.42;;;16.00;99.90;;;;;;6300327;22;20172;-86
2021/05/18 15:34:58;;;;;;;6.95;4.00;;;16.00;99.90;;;;;;6300181;22;20254;-84
2021/05/18 15:37:24;;;;;;;8.43;3.58;;;16.00;99.90;;;;;;6299975;22;20514;-81
2021/05/18 15:39:51;;;;;;;9.05;4.05;;;16.00;99.90;;;;;;6300351;22;20564;-88
2021/05/18 15:42:17;;;;;;;8.75;3.75;;;15.90;99.90;;;;;;6298315;22;20183;-80
2021/05/18 15:44:43;;;;;;;6.85;4.35;;;15.80;99.90;;;;;;6297164;22;20287;-82
2021/05/18 15:47:10;;;;;;;7.23;4.33;;;15.80;99.90;;;;;;6292907;22;20221;-78
2021/05/18 15:49:36;;;;;;;8.07;4.35;;;15.80;99.90;;;;;;6294987;22;20172;-79
2021/05/18 15:52:04;;;;;;;8.85;3.72;;;15.80;99.90;;;;;;6296489;22;20176;-77
2021/05/18 15:54:30;;;;;;;6.13;4.43;;;15.90;99.90;;;;;;6295323;22;20179;-80
2021/05/18 15:56:57;;;;;;;6.60;4.10;;;16.00;99.90;;;;;;6296072;22;20222;-80
2021/05/18 15:59:24;;;;;;;7.72;3.90;;;16.00;99.90;;;;;;6296503;22;20207;-81
2021/05/18 16:01:50;;;;;;;10.40;4.15;;;16.00;99.90;;;;;;6296008;22;20176;-78
2021/05/18 16:04:16;;;;;;;6.63;4.47;;;15.80;99.90;;;;;;6296902;22;20173;-81
2021/05/18 16:06:43;;;;;;;7.07;4.10;;;15.80;99.90;;;;;;6295154;22;20183;-79
2021/05/18 16:09:12;;;;;;;7.88;4.10;;;15.70;99.90;;;;;;6294178;22;20172;-78
2021/05/18 16:11:38;;;;;;;9.10;4.77;;;15.70;99.90;;;;;;6315218;22;20170;-82
2021/05/18 16:14:06;;;;;;;8.33;4.53;;;15.70;99.90;;;;;;6302393;22;20225;-83
2021/05/18 16:16:33;;;;;;;6.80;4.33;;;15.70;99.90;;;;;;6295492;22;20172;-80
2021/05/18 16:19:00;;;;;;;6.00;4.17;;;15.70;99.90;;;;;;6296556;22;20173;-82
2021/05/18 16:21:28;;;;;;;9.90;4.72;;;15.60;99.90;;;;;;6294994;22;20172;-82
2021/05/18 16:23:56;;;;;;;8.30;4.47;;;15.50;99.90;;;;;;6296770;22;20172;-82
2021/05/18 16:26:26;;;;;;;9.20;5.30;;;15.50;99.90;;;;;;6296210;22;20597;-82
2021/05/18 16:28:54;;;;;;;8.93;5.13;;;15.40;99.90;;;;;;6295689;22;20183;-81
2021/05/18 16:31:22;;;;;;;12.23;5.43;;;15.40;99.90;;;;;;6296730;22;20178;-81
2021/05/18 16:33:49;;;;;;;10.43;6.47;;;15.40;99.90;;;;;;6295724;22;20183;-81
2021/05/18 16:36:16;;;;;;;6.63;5.67;;;15.30;99.90;;;;;;6296589;22;20192;-81
2021/05/18 16:38:43;;;;;;;10.00;5.87;;;15.30;99.90;;;;;;6299308;22;20275;-83
2021/05/18 16:41:10;;;;;;;9.03;5.23;;;15.10;99.90;;;;;;6296212;22;20225;-80
2021/05/18 16:43:37;;;;;;;7.93;5.33;;;15.00;99.90;;;;;;6295498;22;20576;-81
2021/05/18 16:46:04;;;;;;;9.70;6.10;;;15.00;99.90;;;;;;6295436;22;20888;-82
2021/05/18 16:48:31;;;;;;;9.90;5.43;;;15.00;99.90;;;;;;6295938;22;20168;-83
2021/05/18 16:51:01;;;;;;;8.27;5.70;;;15.00;99.90;;;;;;6297190;22;20168;-82
2021/05/18 16:53:28;;;;;;;8.53;5.30;;;15.10;99.90;;;;;;6296323;22;20259;-82
2021/05/18 16:55:54;;;;;;;9.07;5.93;;;15.00;99.90;;;;;;6296812;22;20172;-80
2021/05/18 16:58:21;;;;;;;8.30;4.90;;;15.10;99.90;;;;;;6296579;22;20172;-81
2021/05/18 17:00:48;;;;;;;8.47;5.30;;;15.10;99.90;;;;;;6295789;22;20176;-81
2021/05/18 17:03:15;;;;;;;8.93;5.90;;;15.10;99.90;;;;;;6296278;22;20175;-81